Terminal Aerodrome Forecast
Issued by NWS Memphis, TN

Home | Current Version | Previous Version | Text Only | Print | Product List | Glossary On
Versions: 1 2 3 4 5 6 7 8 9 10 11 12 13 14 15
000
FTUS44 KMEG 291700
TAFMKL
TAF
KMKL 291720Z 2918/3018 03005KT P6SM SCT050
     FM300000 00000KT P6SM SCT250
      TEMPO 3008/3012 4SM BR
     FM301600 18003KT P6SM BKN250=

USA.gov is the U.S. government's official web portal to all federal, state and local government web resources and services.